Time;durP1;ratioP1;P1;durP2;ratioP2;P2;SDS_P1;SDS_P2;PMS_P1;PMS_P2;Temp;Humidity;BMP_temperature;BMP_pressure;BME280_temperature;BME280_humidity;BME280_pressure;Samples;Min_cycle;Max_cycle;Signal;HPM_P1;HPM_P2
2022/05/03 00:01:19;;;;;;;10.55;6.38;;;;;;;;;;4920349;29;20031;-77
2022/05/03 00:04:04;;;;;;;9.43;6.60;;;;;;;;;;4936170;29;20043;-77
2022/05/03 00:06:35;;;;;;;9.63;6.47;;;;;;;;;;4937345;29;20063;-77
2022/05/03 00:09:01;;;;;;;9.20;5.93;;;;;;;;;;4937119;29;20393;-75
2022/05/03 00:11:32;;;;;;;10.88;6.60;;;;;;;;;;4936431;29;20039;-76
2022/05/03 00:14:07;;;;;;;10.63;6.78;;;;;;;;;;4919600;29;20027;-77
2022/05/03 00:16:34;;;;;;;11.32;6.10;;;;;;;;;;4919598;29;20035;-76
2022/05/03 00:19:01;;;;;;;10.90;6.25;;;;;;;;;;4917597;29;20032;-76
2022/05/03 00:21:28;;;;;;;12.40;7.03;;;;;;;;;;4916855;29;20386;-77
2022/05/03 00:23:54;;;;;;;13.98;6.93;;;;;;;;;;4911723;29;20040;-77
2022/05/03 00:26:23;;;;;;;11.85;7.13;;;;;;;;;;4920123;29;20113;-78
2022/05/03 00:28:50;;;;;;;13.00;8.40;;;;;;;;;;4920269;29;20028;-77
2022/05/03 00:31:16;;;;;;;14.02;7.65;;;;;;;;;;4919995;29;20032;-78
2022/05/03 00:33:45;;;;;;;12.35;6.95;;;;;;;;;;4920151;29;20032;-80
2022/05/03 00:36:11;;;;;;;12.73;7.95;;;;;;;;;;4919639;29;20023;-78
2022/05/03 00:38:38;;;;;;;16.80;9.45;;;;;;;;;;4919965;29;20028;-78
2022/05/03 00:41:05;;;;;;;19.95;11.35;;;;;;;;;;4936993;29;20051;-78
2022/05/03 00:43:31;;;;;;;18.25;10.35;;;;;;;;;;4937068;29;20119;-78
2022/05/03 00:46:03;;;;;;;17.25;9.70;;;;;;;;;;4919801;29;20020;-78
2022/05/03 00:48:38;;;;;;;17.80;10.65;;;;;;;;;;4936791;29;20119;-79
2022/05/03 00:51:10;;;;;;;14.20;8.75;;;;;;;;;;4919582;29;20118;-78
2022/05/03 00:53:47;;;;;;;12.95;9.05;;;;;;;;;;4936125;29;20032;-77
2022/05/03 00:56:16;;;;;;;14.80;8.52;;;;;;;;;;4936798;29;20028;-77
2022/05/03 00:58:49;;;;;;;13.10;8.00;;;;;;;;;;4936569;29;20032;-76
2022/05/03 01:01:34;;;;;;;16.95;9.00;;;;;;;;;;4919555;29;20108;-77
2022/05/03 01:04:18;;;;;;;13.80;8.27;;;;;;;;;;4919498;29;20597;-78
2022/05/03 01:06:44;;;;;;;14.07;8.15;;;;;;;;;;4919525;29;20031;-77
2022/05/03 01:09:11;;;;;;;12.88;7.70;;;;;;;;;;4919425;29;20082;-78
2022/05/03 01:11:37;;;;;;;11.60;7.63;;;;;;;;;;4919523;29;20115;-77
2022/05/03 01:14:26;;;;;;;12.43;7.60;;;;;;;;;;4919104;29;20027;-77
2022/05/03 01:16:59;;;;;;;11.60;7.82;;;;;;;;;;4884982;29;20496;-77
2022/05/03 01:19:41;;;;;;;12.35;7.72;;;;;;;;;;4919625;29;20040;-78
2022/05/03 01:22:26;;;;;;;13.38;7.47;;;;;;;;;;4936425;29;20032;-78
2022/05/03 01:25:08;;;;;;;13.90;7.95;;;;;;;;;;4936211;29;20477;-76
2022/05/03 01:27:53;;;;;;;11.48;7.50;;;;;;;;;;4934849;29;20098;-78
2022/05/03 01:30:19;;;;;;;13.85;7.85;;;;;;;;;;4935046;29;20032;-78
2022/05/03 01:32:45;;;;;;;13.38;7.28;;;;;;;;;;4934934;29;20051;-77
2022/05/03 01:35:15;;;;;;;11.30;7.18;;;;;;;;;;4936196;29;20079;-79
2022/05/03 01:37:56;;;;;;;12.35;8.15;;;;;;;;;;4934662;29;20115;-77
2022/05/03 01:40:40;;;;;;;10.95;7.07;;;;;;;;;;4934876;29;20034;-77
2022/05/03 01:43:07;;;;;;;11.50;7.35;;;;;;;;;;4934728;29;20028;-78
2022/05/03 01:45:37;;;;;;;10.07;6.10;;;;;;;;;;4936050;29;20035;-78
2022/05/03 01:48:06;;;;;;;7.95;5.72;;;;;;;;;;4934631;29;20023;-79
2022/05/03 01:50:32;;;;;;;11.13;6.68;;;;;;;;;;4934711;29;20032;-77
2022/05/03 01:53:10;;;;;;;10.65;5.85;;;;;;;;;;4935988;29;20083;-79
2022/05/03 01:55:37;;;;;;;10.68;6.57;;;;;;;;;;4934849;29;20119;-78
2022/05/03 01:58:14;;;;;;;9.68;6.30;;;;;;;;;;4935868;29;20024;-78
2022/05/03 02:00:40;;;;;;;9.63;6.35;;;;;;;;;;4934665;29;20126;-76
2022/05/03 02:03:06;;;;;;;11.15;7.22;;;;;;;;;;4935882;29;20036;-77
2022/05/03 02:05:45;;;;;;;10.98;6.25;;;;;;;;;;4936532;29;20118;-79
2022/05/03 02:08:14;;;;;;;11.93;6.20;;;;;;;;;;4938291;29;20027;-79
2022/05/03 02:10:47;;;;;;;9.52;6.88;;;;;;;;;;4938290;29;20023;-77
2022/05/03 02:14:43;;;;;;;14.20;6.60;;;;;;;;;;4938607;29;20433;-78
2022/05/03 02:16:18;;;;;;;8.02;5.68;;;;;;;;;;4939503;29;20033;-77
2022/05/03 02:18:54;;;;;;;11.88;6.95;;;;;;;;;;4938372;29;20035;-79
2022/05/03 02:21:26;;;;;;;14.68;7.78;;;;;;;;;;4937815;29;20118;-76
2022/05/03 02:23:52;;;;;;;9.13;6.18;;;;;;;;;;4938144;29;20036;-78
2022/05/03 02:26:24;;;;;;;11.15;7.13;;;;;;;;;;4938063;29;20473;-77
2022/05/03 02:29:09;;;;;;;12.52;6.55;;;;;;;;;;4938086;29;20469;-76
2022/05/03 02:31:51;;;;;;;10.02;6.97;;;;;;;;;;4938055;29;20131;-77
2022/05/03 02:34:22;;;;;;;9.57;6.40;;;;;;;;;;4937917;29;20024;-77
2022/05/03 02:36:54;;;;;;;10.75;6.22;;;;;;;;;;4937955;29;20071;-77
2022/05/03 02:39:21;;;;;;;11.63;6.75;;;;;;;;;;4937761;29;20036;-77
2022/05/03 02:41:50;;;;;;;10.30;6.53;;;;;;;;;;4939045;29;20027;-77
2022/05/03 02:44:16;;;;;;;12.95;6.78;;;;;;;;;;4937853;29;20466;-77
2022/05/03 02:46:52;;;;;;;11.23;6.97;;;;;;;;;;4938828;29;20024;-77
2022/05/03 02:49:34;;;;;;;9.35;6.15;;;;;;;;;;4939122;29;20028;-77
2022/05/03 02:52:15;;;;;;;15.75;6.30;;;;;;;;;;4937691;29;20031;-77
2022/05/03 02:54:56;;;;;;;12.00;6.57;;;;;;;;;;4937716;29;20412;-77
2022/05/03 02:57:49;;;;;;;9.65;6.85;;;;;;;;;;4937568;29;20036;-78
2022/05/03 03:03:19;;;;;;;11.35;6.55;;;;;;;;;;4938696;29;20058;-77
2022/05/03 03:05:50;;;;;;;10.07;6.80;;;;;;;;;;4938742;29;20111;-75
2022/05/03 03:08:19;;;;;;;9.65;6.72;;;;;;;;;;4937463;29;20063;-78
2022/05/03 03:10:51;;;;;;;11.27;6.90;;;;;;;;;;4937215;29;20031;-76
2022/05/03 03:13:33;;;;;;;9.68;6.13;;;;;;;;;;4937070;29;20396;-77
2022/05/03 03:15:59;;;;;;;9.90;6.15;;;;;;;;;;4938521;29;20023;-76
2022/05/03 03:18:27;;;;;;;10.68;6.43;;;;;;;;;;4936577;29;20043;-77
2022/05/03 03:20:59;;;;;;;10.73;6.45;;;;;;;;;;4936920;29;20059;-77
2022/05/03 03:23:26;;;;;;;11.65;6.47;;;;;;;;;;4936945;29;20036;-77
2022/05/03 03:25:52;;;;;;;10.45;6.90;;;;;;;;;;4938147;29;20028;-76
2022/05/03 03:28:22;;;;;;;10.00;5.93;;;;;;;;;;4937004;29;20024;-78
2022/05/03 03:30:49;;;;;;;9.77;7.22;;;;;;;;;;4937044;29;20034;-77
2022/05/03 03:33:17;;;;;;;17.42;7.30;;;;;;;;;;4936727;29;20083;-77
2022/05/03 03:35:45;;;;;;;14.18;8.68;;;;;;;;;;4938094;29;20034;-77
2022/05/03 03:38:13;;;;;;;14.75;9.00;;;;;;;;;;4936840;29;20028;-77
2022/05/03 03:40:40;;;;;;;14.95;8.80;;;;;;;;;;4936832;29;20058;-77
2022/05/03 03:43:06;;;;;;;13.63;8.63;;;;;;;;;;4936457;29;20138;-77
2022/05/03 03:45:33;;;;;;;11.95;8.70;;;;;;;;;;4936715;29;20078;-78
2022/05/03 03:48:00;;;;;;;16.35;9.15;;;;;;;;;;4937941;29;20091;-77
2022/05/03 03:50:27;;;;;;;13.25;8.20;;;;;;;;;;4936424;29;20031;-78
2022/05/03 03:52:53;;;;;;;14.05;8.38;;;;;;;;;;4937807;29;20032;-75
2022/05/03 03:55:20;;;;;;;18.45;7.75;;;;;;;;;;4936629;29;20389;-78
2022/05/03 03:57:46;;;;;;;13.65;8.20;;;;;;;;;;4936455;29;20034;-77
2022/05/03 04:00:16;;;;;;;16.52;8.40;;;;;;;;;;4936432;29;20024;-77
2022/05/03 04:02:43;;;;;;;17.80;7.60;;;;;;;;;;4937442;29;20075;-78
2022/05/03 04:05:16;;;;;;;12.25;7.38;;;;;;;;;;4937485;29;20028;-77
2022/05/03 04:07:43;;;;;;;10.52;7.07;;;;;;;;;;4936402;29;20397;-77
2022/05/03 04:10:09;;;;;;;14.57;7.25;;;;;;;;;;4937286;29;20024;-76
2022/05/03 04:12:35;;;;;;;13.05;7.07;;;;;;;;;;4936227;29;20031;-78
2022/05/03 04:15:01;;;;;;;12.60;6.63;;;;;;;;;;4937397;29;20477;-78
2022/05/03 04:17:28;;;;;;;10.88;6.90;;;;;;;;;;4937379;29;20027;-77
2022/05/03 04:19:54;;;;;;;9.88;6.30;;;;;;;;;;4935564;29;20133;-77
2022/05/03 04:22:30;;;;;;;12.02;6.90;;;;;;;;;;4936006;29;20032;-78
2022/05/03 04:24:56;;;;;;;10.60;6.88;;;;;;;;;;4936007;29;20493;-77
2022/05/03 04:27:23;;;;;;;12.65;6.30;;;;;;;;;;4932876;29;20066;-75
2022/05/03 04:29:50;;;;;;;12.07;7.38;;;;;;;;;;4927805;29;20031;-76
2022/05/03 04:32:16;;;;;;;11.90;7.47;;;;;;;;;;4935666;29;20024;-76
2022/05/03 04:34:42;;;;;;;12.40;7.75;;;;;;;;;;4935334;29;20091;-76
2022/05/03 04:37:08;;;;;;;12.77;8.25;;;;;;;;;;4935513;29;20024;-77
2022/05/03 04:39:34;;;;;;;10.23;7.03;;;;;;;;;;4935101;29;20031;-77
2022/05/03 04:42:01;;;;;;;12.23;7.28;;;;;;;;;;4935600;29;20035;-77
2022/05/03 04:44:27;;;;;;;12.90;7.00;;;;;;;;;;4935346;29;20032;-77
2022/05/03 04:47:01;;;;;;;11.00;8.02;;;;;;;;;;4937216;29;20028;-76
2022/05/03 04:49:27;;;;;;;12.10;7.47;;;;;;;;;;4938404;29;20062;-75
2022/05/03 04:51:54;;;;;;;13.57;7.13;;;;;;;;;;4935868;29;20155;-75
2022/05/03 04:54:20;;;;;;;9.98;6.68;;;;;;;;;;4935872;29;20528;-76
2022/05/03 04:56:48;;;;;;;9.27;6.57;;;;;;;;;;4936585;29;20031;-75
2022/05/03 04:59:14;;;;;;;9.23;6.00;;;;;;;;;;4936187;29;20027;-76
2022/05/03 05:01:40;;;;;;;9.73;5.90;;;;;;;;;;4934743;29;20036;-76
2022/05/03 05:04:06;;;;;;;11.85;6.07;;;;;;;;;;4935316;29;20034;-75
2022/05/03 05:06:32;;;;;;;10.38;5.88;;;;;;;;;;4936241;29;20106;-76
2022/05/03 05:08:58;;;;;;;7.97;5.53;;;;;;;;;;4936287;29;20038;-77
2022/05/03 05:11:24;;;;;;;9.73;5.70;;;;;;;;;;4936269;29;20062;-77
2022/05/03 05:13:51;;;;;;;10.23;5.63;;;;;;;;;;4935170;29;20083;-77
2022/05/03 05:16:17;;;;;;;9.75;5.40;;;;;;;;;;4934937;29;20036;-78
2022/05/03 05:18:43;;;;;;;9.98;5.38;;;;;;;;;;4934933;29;20031;-79
2022/05/03 05:21:10;;;;;;;10.30;5.15;;;;;;;;;;4942221;29;20055;-76
2022/05/03 05:23:37;;;;;;;8.10;4.82;;;;;;;;;;4917236;29;20092;-78
2022/05/03 05:26:03;;;;;;;9.77;5.63;;;;;;;;;;4917008;29;20107;-78
2022/05/03 05:28:29;;;;;;;8.07;5.20;;;;;;;;;;4930897;29;20038;-77
2022/05/03 05:30:56;;;;;;;8.02;5.10;;;;;;;;;;4936105;29;20082;-77
2022/05/03 05:33:22;;;;;;;8.55;5.50;;;;;;;;;;4924439;29;20035;-77
2022/05/03 05:35:49;;;;;;;8.00;5.35;;;;;;;;;;4924654;29;20028;-77
2022/05/03 05:38:16;;;;;;;11.60;7.05;;;;;;;;;;4913482;29;20024;-77
2022/05/03 05:40:42;;;;;;;13.27;8.68;;;;;;;;;;4931243;29;20553;-77
2022/05/03 05:43:08;;;;;;;14.35;7.63;;;;;;;;;;4917017;29;20048;-76
2022/05/03 05:45:35;;;;;;;11.27;6.95;;;;;;;;;;4924410;29;20027;-75
2022/05/03 05:48:01;;;;;;;11.35;6.20;;;;;;;;;;4918028;29;20039;-75
2022/05/03 05:50:28;;;;;;;13.65;4.75;;;;;;;;;;4915588;29;20092;-76
2022/05/03 05:55:39;;;;;;;9.05;4.57;;;;;;;;;;4924859;29;20034;-75
2022/05/03 05:58:05;;;;;;;6.53;4.07;;;;;;;;;;4929274;29;20114;-75
2022/05/03 06:00:31;;;;;;;5.75;3.50;;;;;;;;;;4924065;29;20032;-75
2022/05/03 06:02:58;;;;;;;12.25;4.05;;;;;;;;;;4926624;29;20060;-75
2022/05/03 06:05:25;;;;;;;9.20;3.72;;;;;;;;;;4924253;29;20028;-76
2022/05/03 06:07:52;;;;;;;13.02;4.45;;;;;;;;;;4925923;29;20032;-76
2022/05/03 06:10:18;;;;;;;8.90;3.92;;;;;;;;;;4924672;29;20111;-76
2022/05/03 06:12:45;;;;;;;7.53;4.07;;;;;;;;;;4906776;29;20039;-76
2022/05/03 06:15:12;;;;;;;8.00;4.32;;;;;;;;;;4922062;29;20030;-75
2022/05/03 06:17:40;;;;;;;8.73;3.78;;;;;;;;;;4926881;29;20460;-74
2022/05/03 06:20:06;;;;;;;7.10;4.28;;;;;;;;;;4929857;29;20477;-75
2022/05/03 06:22:33;;;;;;;6.72;3.90;;;;;;;;;;4934912;29;20071;-75
2022/05/03 06:24:59;;;;;;;5.55;3.42;;;;;;;;;;4932317;29;20027;-75
2022/05/03 06:27:25;;;;;;;7.97;4.10;;;;;;;;;;4935046;29;20032;-75
2022/05/03 06:29:51;;;;;;;12.75;4.00;;;;;;;;;;4935243;29;20090;-74
2022/05/03 06:32:17;;;;;;;6.50;3.78;;;;;;;;;;4935053;29;20037;-75
2022/05/03 06:34:43;;;;;;;7.82;3.40;;;;;;;;;;4917854;29;20099;-75
2022/05/03 06:37:09;;;;;;;18.58;4.25;;;;;;;;;;4935135;29;20055;-75
2022/05/03 06:39:36;;;;;;;6.07;3.60;;;;;;;;;;4934922;29;20032;-75
2022/05/03 06:42:06;;;;;;;9.10;3.75;;;;;;;;;;4935447;29;20040;-75
2022/05/03 06:44:33;;;;;;;6.95;3.70;;;;;;;;;;4934827;29;20062;-75
2022/05/03 06:46:59;;;;;;;6.47;3.67;;;;;;;;;;4934968;29;20023;-75
2022/05/03 06:49:25;;;;;;;6.57;3.95;;;;;;;;;;4917601;29;20036;-74
2022/05/03 06:51:51;;;;;;;6.57;3.78;;;;;;;;;;4918931;29;20119;-75
2022/05/03 06:54:17;;;;;;;8.98;3.67;;;;;;;;;;4921529;29;20397;-75
2022/05/03 06:56:44;;;;;;;7.28;3.53;;;;;;;;;;4921537;29;20030;-75
2022/05/03 06:59:10;;;;;;;10.75;3.90;;;;;;;;;;4921574;29;20032;-74
2022/05/03 07:01:36;;;;;;;7.78;3.95;;;;;;;;;;4921436;29;20032;-74
2022/05/03 07:04:02;;;;;;;5.68;3.13;;;;;;;;;;4921305;29;20036;-75
2022/05/03 07:06:28;;;;;;;7.90;3.60;;;;;;;;;;4921332;29;20031;-75
2022/05/03 07:08:55;;;;;;;7.25;3.70;;;;;;;;;;4921196;29;20036;-76
2022/05/03 07:11:21;;;;;;;5.82;3.10;;;;;;;;;;4938319;29;20023;-75
2022/05/03 07:13:50;;;;;;;5.72;3.20;;;;;;;;;;4938031;29;20051;-76
2022/05/03 07:16:16;;;;;;;6.13;3.65;;;;;;;;;;4938503;29;20107;-76
2022/05/03 07:24:11;;;;;;;7.13;3.47;;;;;;;;;;4919415;29;20086;-76
2022/05/03 07:26:37;;;;;;;7.78;4.50;;;;;;;;;;4902229;29;20115;-76
2022/05/03 07:29:04;;;;;;;8.68;4.63;;;;;;;;;;4920880;29;20032;-76
2022/05/03 07:31:30;;;;;;;6.55;4.10;;;;;;;;;;4920959;29;20027;-76
2022/05/03 07:33:56;;;;;;;5.57;3.53;;;;;;;;;;4937459;29;20094;-76
2022/05/03 07:36:22;;;;;;;4.78;3.35;;;;;;;;;;4920972;29;20378;-76
2022/05/03 07:38:49;;;;;;;5.32;3.45;;;;;;;;;;4920590;29;20032;-76
2022/05/03 07:41:15;;;;;;;6.45;3.70;;;;;;;;;;4920880;29;20059;-76
2022/05/03 07:43:43;;;;;;;6.80;3.47;;;;;;;;;;4919685;29;20123;-76
2022/05/03 07:46:09;;;;;;;7.18;3.85;;;;;;;;;;4920801;29;20101;-76
2022/05/03 07:48:35;;;;;;;5.70;3.53;;;;;;;;;;4937755;29;20473;-79
2022/05/03 07:51:01;;;;;;;7.30;3.55;;;;;;;;;;4920377;29;20024;-78
2022/05/03 07:53:27;;;;;;;6.10;3.53;;;;;;;;;;4937522;29;20469;-76
2022/05/03 07:55:54;;;;;;;5.63;3.30;;;;;;;;;;4920527;29;20031;-77
2022/05/03 07:58:21;;;;;;;5.85;3.38;;;;;;;;;;4937205;29;20039;-77
2022/05/03 08:00:48;;;;;;;4.97;3.50;;;;;;;;;;4937738;29;20028;-76
2022/05/03 08:03:14;;;;;;;5.93;3.40;;;;;;;;;;4936688;29;20090;-77
2022/05/03 08:05:41;;;;;;;5.13;3.30;;;;;;;;;;4936891;29;20028;-76
2022/05/03 08:08:07;;;;;;;5.80;3.28;;;;;;;;;;4919605;29;20092;-78
2022/05/03 08:10:34;;;;;;;6.85;3.83;;;;;;;;;;4901610;29;20036;-76
2022/05/03 08:13:00;;;;;;;5.50;3.30;;;;;;;;;;4918444;29;20036;-76
2022/05/03 08:15:26;;;;;;;6.03;3.67;;;;;;;;;;4923065;29;20045;-76
2022/05/03 08:17:52;;;;;;;6.32;3.67;;;;;;;;;;4937233;29;20028;-76
2022/05/03 08:20:18;;;;;;;5.38;3.42;;;;;;;;;;4937080;29;20412;-76
2022/05/03 08:22:44;;;;;;;5.72;3.40;;;;;;;;;;4920165;29;20040;-77
2022/05/03 08:25:10;;;;;;;6.13;3.47;;;;;;;;;;4937339;29;20024;-78
2022/05/03 08:27:38;;;;;;;6.43;3.33;;;;;;;;;;4937201;29;20042;-77
2022/05/03 08:30:08;;;;;;;6.25;3.13;;;;;;;;;;4919960;29;20024;-77
2022/05/03 08:32:34;;;;;;;7.53;3.28;;;;;;;;;;4926505;29;20082;-81
2022/05/03 08:35:00;;;;;;;6.20;3.22;;;;;;;;;;4939137;29;20089;-77
2022/05/03 08:42:56;;;;;;;4.85;3.53;;;;;;;;;;4955917;29;20520;-77
2022/05/03 08:45:24;;;;;;;4.82;3.40;;;;;;;;;;4956162;29;20469;-78
2022/05/03 08:47:50;;;;;;;7.47;3.58;;;;;;;;;;4956024;29;20035;-77
2022/05/03 08:50:22;;;;;;;4.78;3.40;;;;;;;;;;4944399;29;20039;-77
2022/05/03 08:52:52;;;;;;;5.00;3.42;;;;;;;;;;4936894;29;20028;-77
2022/05/03 08:55:19;;;;;;;5.85;3.95;;;;;;;;;;4936877;29;20024;-77
2022/05/03 08:57:45;;;;;;;7.45;3.70;;;;;;;;;;4936906;29;20047;-77
2022/05/03 09:00:13;;;;;;;3.83;3.00;;;;;;;;;;4932536;29;20052;-79
2022/05/03 09:02:49;;;;;;;6.60;3.40;;;;;;;;;;4917455;29;20043;-79
2022/05/03 09:05:16;;;;;;;5.82;2.45;;;;;;;;;;4915974;29;20032;-79
2022/05/03 09:07:50;;;;;;;4.05;2.78;;;;;;;;;;4916390;29;20032;-78
2022/05/03 09:10:20;;;;;;;4.47;2.83;;;;;;;;;;4916336;29;20084;-79
2022/05/03 09:12:49;;;;;;;5.60;3.50;;;;;;;;;;4916084;29;20067;-78
2022/05/03 09:15:15;;;;;;;4.90;3.17;;;;;;;;;;4915792;29;20036;-80
2022/05/03 09:17:45;;;;;;;5.88;3.25;;;;;;;;;;4916290;29;20067;-79
2022/05/03 09:26:18;;;;;;;5.97;3.35;;;;;;;;;;4917468;29;20497;-80
2022/05/03 09:28:52;;;;;;;4.95;3.28;;;;;;;;;;4916135;29;20090;-89
2022/05/03 09:31:30;;;;;;;8.25;4.07;;;;;;;;;;4916081;29;20024;-78
2022/05/03 09:33:57;;;;;;;3.63;2.78;;;;;;;;;;4916076;29;20059;-78
2022/05/03 09:36:24;;;;;;;5.55;3.00;;;;;;;;;;4916010;29;20036;-76
2022/05/03 09:38:51;;;;;;;7.18;3.53;;;;;;;;;;4915723;29;20401;-78
2022/05/03 09:41:18;;;;;;;8.73;3.17;;;;;;;;;;4915944;29;20553;-78
2022/05/03 09:44:04;;;;;;;4.85;2.97;;;;;;;;;;4915824;29;20040;-78
2022/05/03 09:46:31;;;;;;;4.50;2.90;;;;;;;;;;4915688;29;20039;-79
2022/05/03 09:48:58;;;;;;;4.55;2.63;;;;;;;;;;4915906;29;20119;-79
2022/05/03 09:51:24;;;;;;;4.70;2.85;;;;;;;;;;4915568;29;20024;-80
2022/05/03 09:53:57;;;;;;;3.88;2.67;;;;;;;;;;4917058;29;20032;-80
2022/05/03 09:56:28;;;;;;;3.45;2.40;;;;;;;;;;4915761;29;20024;-79
2022/05/03 09:58:57;;;;;;;6.32;2.50;;;;;;;;;;4915760;29;20036;-79
2022/05/03 10:01:24;;;;;;;6.90;2.55;;;;;;;;;;4916700;29;20020;-79
2022/05/03 10:03:50;;;;;;;4.70;2.15;;;;;;;;;;4915682;29;20040;-77
2022/05/03 10:06:17;;;;;;;3.67;1.88;;;;;;;;;;4930845;29;20393;-80
2022/05/03 10:08:44;;;;;;;4.68;2.47;;;;;;;;;;4918675;29;20038;-77
2022/05/03 10:11:11;;;;;;;4.57;2.45;;;;;;;;;;4918528;29;20027;-79
2022/05/03 10:13:37;;;;;;;3.20;2.15;;;;;;;;;;4918800;29;20031;-81
2022/05/03 10:21:37;;;;;;;4.07;2.20;;;;;;;;;;4935837;29;20516;-79
2022/05/03 10:24:13;;;;;;;4.63;2.40;;;;;;;;;;4918380;29;20441;-79
2022/05/03 10:26:57;;;;;;;3.72;2.17;;;;;;;;;;4914827;29;20030;-78
2022/05/03 10:29:25;;;;;;;3.28;2.40;;;;;;;;;;4920534;29;20031;-78
2022/05/03 10:32:17;;;;;;;3.40;2.17;;;;;;;;;;4922373;29;20365;-78
2022/05/03 10:34:43;;;;;;;3.88;2.00;;;;;;;;;;4930096;29;20072;-76
2022/05/03 10:37:11;;;;;;;3.80;2.40;;;;;;;;;;4939223;29;20034;-76
2022/05/03 10:39:57;;;;;;;6.05;2.40;;;;;;;;;;4939178;29;20486;-76
2022/05/03 10:42:28;;;;;;;4.82;2.42;;;;;;;;;;4938860;29;20047;-75
2022/05/03 10:45:07;;;;;;;7.63;2.40;;;;;;;;;;4939059;29;20106;-75
2022/05/03 10:47:39;;;;;;;6.95;2.55;;;;;;;;;;4939016;29;20028;-75
2022/05/03 10:50:12;;;;;;;6.43;2.97;;;;;;;;;;4939119;29;20551;-77
2022/05/03 10:52:38;;;;;;;4.53;2.63;;;;;;;;;;4938867;29;20027;-75
2022/05/03 10:55:08;;;;;;;6.32;2.83;;;;;;;;;;4939044;29;20042;-75
2022/05/03 10:57:54;;;;;;;4.53;2.50;;;;;;;;;;4939073;29;20114;-74
2022/05/03 11:00:38;;;;;;;3.75;2.25;;;;;;;;;;4936874;29;20032;-77
2022/05/03 11:03:20;;;;;;;5.32;2.72;;;;;;;;;;4917490;29;20047;-75
2022/05/03 11:06:05;;;;;;;5.88;2.50;;;;;;;;;;4919261;29;20036;-77
2022/05/03 11:08:31;;;;;;;4.35;2.35;;;;;;;;;;4918538;29;20032;-77
2022/05/03 11:10:57;;;;;;;3.63;2.35;;;;;;;;;;4919705;29;20028;-75
2022/05/03 11:13:40;;;;;;;3.35;2.22;;;;;;;;;;4918348;29;20040;-77
2022/05/03 11:16:19;;;;;;;4.20;2.25;;;;;;;;;;4918339;29;20036;-77
2022/05/03 11:18:45;;;;;;;5.22;2.47;;;;;;;;;;4918427;29;20123;-77
2022/05/03 11:21:15;;;;;;;5.45;2.40;;;;;;;;;;4932586;29;20566;-76
2022/05/03 11:23:51;;;;;;;7.03;2.28;;;;;;;;;;4918146;29;20047;-74
2022/05/03 11:26:19;;;;;;;6.93;1.70;;;;;;;;;;4918086;29;20044;-77
2022/05/03 11:28:47;;;;;;;3.72;2.08;;;;;;;;;;4918126;29;20079;-75
2022/05/03 11:31:13;;;;;;;6.38;1.70;;;;;;;;;;4918113;29;20028;-76
2022/05/03 11:33:49;;;;;;;3.75;2.08;;;;;;;;;;4917991;29;20563;-77
2022/05/03 11:36:15;;;;;;;4.70;2.40;;;;;;;;;;4917379;29;20032;-77
2022/05/03 11:38:41;;;;;;;4.28;2.15;;;;;;;;;;4917427;29;20028;-76
2022/05/03 11:41:07;;;;;;;3.55;2.13;;;;;;;;;;4917603;29;20028;-78
2022/05/03 11:43:34;;;;;;;3.45;1.80;;;;;;;;;;4917799;29;20040;-78
2022/05/03 11:46:00;;;;;;;4.75;2.22;;;;;;;;;;4917835;29;20629;-80
2022/05/03 11:48:28;;;;;;;5.57;2.00;;;;;;;;;;4918907;29;20486;-78
2022/05/03 11:56:27;;;;;;;4.18;2.20;;;;;;;;;;4918959;29;20035;-78
2022/05/03 11:58:54;;;;;;;4.18;2.13;;;;;;;;;;4918836;29;20068;-80
2022/05/03 12:01:23;;;;;;;2.60;1.73;;;;;;;;;;4917536;29;20028;-79
2022/05/03 12:03:50;;;;;;;4.95;1.80;;;;;;;;;;4917436;29;20134;-77
2022/05/03 12:06:17;;;;;;;2.78;1.80;;;;;;;;;;4917390;29;20020;-77
2022/05/03 12:08:48;;;;;;;2.55;1.80;;;;;;;;;;4917502;29;20031;-76
2022/05/03 12:11:21;;;;;;;5.50;2.17;;;;;;;;;;4918563;29;20028;-77
2022/05/03 12:13:47;;;;;;;3.40;2.17;;;;;;;;;;4918752;29;20481;-76
2022/05/03 12:16:17;;;;;;;3.58;2.08;;;;;;;;;;4918624;29;20024;-78
2022/05/03 12:18:48;;;;;;;9.77;2.75;;;;;;;;;;4917232;29;20043;-79
2022/05/03 12:21:20;;;;;;;17.02;3.03;;;;;;;;;;4920049;29;20508;-80
2022/05/03 12:23:46;;;;;;;4.53;2.60;;;;;;;;;;4920077;29;20040;-80
2022/05/03 12:26:20;;;;;;;5.72;2.45;;;;;;;;;;4920673;29;20103;-80
2022/05/03 12:28:57;;;;;;;5.13;2.53;;;;;;;;;;4926786;29;20024;-81
2022/05/03 12:31:24;;;;;;;4.05;2.50;;;;;;;;;;4932899;29;20060;-81
2022/05/03 12:33:54;;;;;;;4.28;2.58;;;;;;;;;;4929900;29;20036;-81
2022/05/03 12:36:28;;;;;;;7.80;2.65;;;;;;;;;;4935735;29;20392;-83
2022/05/03 12:38:54;;;;;;;4.45;2.65;;;;;;;;;;4932888;29;20080;-82
2022/05/03 12:41:29;;;;;;;4.60;2.58;;;;;;;;;;4926997;29;20060;-80
2022/05/03 12:44:09;;;;;;;4.03;2.70;;;;;;;;;;4935790;29;20042;-79
2022/05/03 12:46:38;;;;;;;4.22;2.78;;;;;;;;;;4929447;29;20557;-80
2022/05/03 12:49:06;;;;;;;5.10;2.40;;;;;;;;;;4936608;29;20469;-83
2022/05/03 12:51:33;;;;;;;3.97;2.30;;;;;;;;;;4936791;29;20111;-80
2022/05/03 12:54:02;;;;;;;5.38;2.50;;;;;;;;;;4936911;29;20028;-79
2022/05/03 12:59:13;;;;;;;4.68;2.80;;;;;;;;;;4937167;29;20146;-79
2022/05/03 13:01:39;;;;;;;9.27;2.97;;;;;;;;;;4935693;29;20023;-79
2022/05/03 13:04:06;;;;;;;4.82;2.45;;;;;;;;;;4936775;29;20050;-81
2022/05/03 13:06:32;;;;;;;3.83;2.47;;;;;;;;;;4935271;29;20075;-82
2022/05/03 13:08:58;;;;;;;3.13;2.40;;;;;;;;;;4935492;29;20481;-80
2022/05/03 13:11:24;;;;;;;5.53;2.00;;;;;;;;;;4935426;29;20058;-81
2022/05/03 13:13:50;;;;;;;3.63;2.15;;;;;;;;;;4935446;29;20122;-78
2022/05/03 13:16:17;;;;;;;4.97;2.25;;;;;;;;;;4935341;29;20572;-79
2022/05/03 13:18:44;;;;;;;3.45;2.60;;;;;;;;;;4935381;29;20032;-83
2022/05/03 13:21:10;;;;;;;3.75;2.15;;;;;;;;;;4934785;29;20052;-83
2022/05/03 13:23:36;;;;;;;4.93;2.47;;;;;;;;;;4936527;29;20501;-83
2022/05/03 13:26:02;;;;;;;7.57;2.60;;;;;;;;;;4935321;29;20114;-80
2022/05/03 13:28:28;;;;;;;6.63;2.90;;;;;;;;;;4936328;29;20035;-79
2022/05/03 13:30:55;;;;;;;4.03;2.58;;;;;;;;;;4936386;29;20027;-83
2022/05/03 13:33:21;;;;;;;4.57;2.35;;;;;;;;;;4935304;29;20035;-80
2022/05/03 13:41:19;;;;;;;5.00;2.92;;;;;;;;;;4936555;29;20118;-79
2022/05/03 13:43:46;;;;;;;5.25;2.90;;;;;;;;;;4934351;29;20165;-83
2022/05/03 13:46:13;;;;;;;3.55;2.40;;;;;;;;;;4934434;29;20031;-79
2022/05/03 13:48:39;;;;;;;4.15;2.13;;;;;;;;;;4935696;29;20024;-84
2022/05/03 13:51:05;;;;;;;5.28;2.92;;;;;;;;;;4936009;29;20020;-80
2022/05/03 13:53:32;;;;;;;4.97;2.90;;;;;;;;;;4935465;29;20031;-81
2022/05/03 13:55:58;;;;;;;3.83;2.60;;;;;;;;;;4918779;29;20035;-81
2022/05/03 13:58:24;;;;;;;4.68;2.53;;;;;;;;;;4918394;29;20040;-80
2022/05/03 14:00:51;;;;;;;5.03;2.55;;;;;;;;;;4919862;29;20543;-82
2022/05/03 14:03:17;;;;;;;3.92;2.60;;;;;;;;;;4922869;29;20039;-81
2022/05/03 14:05:43;;;;;;;5.82;2.72;;;;;;;;;;4922796;29;20520;-80
2022/05/03 14:08:10;;;;;;;5.68;2.70;;;;;;;;;;4938288;29;20584;-79
2022/05/03 14:10:40;;;;;;;3.83;2.60;;;;;;;;;;4939411;29;20026;-81
2022/05/03 14:13:06;;;;;;;3.00;1.95;;;;;;;;;;4922460;29;20110;-79
2022/05/03 14:15:32;;;;;;;4.95;2.45;;;;;;;;;;4926357;29;20020;-78
2022/05/03 14:17:58;;;;;;;6.85;2.53;;;;;;;;;;4938406;29;20023;-82
2022/05/03 14:20:25;;;;;;;4.40;2.53;;;;;;;;;;4950901;29;20052;-78
2022/05/03 14:22:51;;;;;;;7.45;2.80;;;;;;;;;;4958738;29;20134;-78
2022/05/03 14:25:17;;;;;;;5.80;2.80;;;;;;;;;;4941967;29;20027;-79
2022/05/03 14:27:44;;;;;;;8.70;2.55;;;;;;;;;;4939537;29;20107;-79
2022/05/03 14:30:10;;;;;;;4.35;2.70;;;;;;;;;;4922401;29;20059;-81
2022/05/03 14:32:37;;;;;;;7.18;2.90;;;;;;;;;;4939459;29;20114;-79
2022/05/03 14:35:04;;;;;;;4.07;2.50;;;;;;;;;;4922338;29;20028;-79
2022/05/03 14:37:30;;;;;;;5.43;2.60;;;;;;;;;;4922175;29;20040;-80
2022/05/03 14:39:57;;;;;;;5.45;2.28;;;;;;;;;;4922159;29;20055;-79
2022/05/03 14:42:24;;;;;;;4.95;2.50;;;;;;;;;;4955828;29;20027;-82
2022/05/03 14:44:50;;;;;;;8.93;2.70;;;;;;;;;;4941083;29;20055;-80
2022/05/03 14:47:16;;;;;;;9.32;2.17;;;;;;;;;;4958406;29;20053;-80
2022/05/03 14:49:42;;;;;;;4.32;2.05;;;;;;;;;;4925171;29;20042;-81
2022/05/03 14:52:11;;;;;;;3.30;1.90;;;;;;;;;;4902918;29;20053;-81
2022/05/03 14:54:37;;;;;;;4.80;2.00;;;;;;;;;;4903150;29;20135;-80
2022/05/03 15:05:20;;;;;;;3.50;1.60;;;;;;;;;;4920189;29;20054;-79
2022/05/03 15:07:46;;;;;;;6.38;1.80;;;;;;;;;;4902746;29;20025;-77
2022/05/03 15:10:13;;;;;;;5.05;1.83;;;;;;;;;;4902708;29;20032;-80
2022/05/03 15:12:39;;;;;;;5.03;1.80;;;;;;;;;;4901889;29;20067;-81
2022/05/03 15:15:06;;;;;;;4.13;1.50;;;;;;;;;;4902621;29;20107;-80
2022/05/03 15:17:32;;;;;;;2.50;1.70;;;;;;;;;;4918149;29;20035;-80
2022/05/03 15:19:59;;;;;;;3.53;1.52;;;;;;;;;;4938368;29;20058;-81
2022/05/03 15:25:10;;;;;;;3.65;1.30;;;;;;;;;;4938856;29;20038;-81
2022/05/03 15:27:36;;;;;;;3.20;1.60;;;;;;;;;;4934823;29;20031;-81
2022/05/03 15:30:03;;;;;;;3.95;1.63;;;;;;;;;;4927237;29;20469;-80
2022/05/03 15:32:30;;;;;;;5.63;1.77;;;;;;;;;;4935204;29;20066;-81
2022/05/03 15:34:57;;;;;;;2.95;1.65;;;;;;;;;;4937941;29;20466;-81
2022/05/03 15:37:23;;;;;;;4.47;1.60;;;;;;;;;;4937736;29;20034;-80
2022/05/03 15:39:53;;;;;;;7.43;1.92;;;;;;;;;;4936353;29;20536;-80
2022/05/03 15:42:20;;;;;;;7.63;1.70;;;;;;;;;;4936430;29;20082;-80